createdAt,value
2023-05-19T00:00:28.621Z,8.34
2023-05-19T00:02:57.442Z,8.30
2023-05-19T00:05:28.125Z,8.27
2023-05-19T00:07:59.770Z,8.21
2023-05-19T00:10:31.634Z,8.16
2023-05-19T00:13:01.439Z,8.14
2023-05-19T00:15:28.152Z,8.13
2023-05-19T00:17:57.255Z,8.09
2023-05-19T00:20:25.880Z,8.03
2023-05-19T00:22:52.513Z,8.01
2023-05-19T00:25:19.017Z,7.99
2023-05-19T00:27:47.898Z,7.93
2023-05-19T00:30:14.729Z,7.89
2023-05-19T00:32:41.263Z,7.88
2023-05-19T00:35:08.240Z,7.86
2023-05-19T00:37:37.254Z,7.89
2023-05-19T00:40:06.895Z,7.88
2023-05-19T00:42:40.747Z,7.85
2023-05-19T00:45:07.919Z,7.86
2023-05-19T00:47:34.756Z,7.83
2023-05-19T00:50:03.917Z,7.79
2023-05-19T00:52:30.816Z,7.75
2023-05-19T00:55:02.354Z,7.71
2023-05-19T00:57:31.255Z,7.67
2023-05-19T01:00:04.075Z,7.64
2023-05-19T01:02:33.238Z,7.60
2023-05-19T01:05:02.892Z,7.56
2023-05-19T01:07:30.032Z,7.55
2023-05-19T01:09:56.574Z,7.50
2023-05-19T01:12:25.991Z,7.50
2023-05-19T01:14:52.611Z,7.49
2023-05-19T01:17:36.834Z,7.49
2023-05-19T01:20:06.662Z,7.48
2023-05-19T01:22:42.688Z,7.47
2023-05-19T01:25:13.006Z,7.44
2023-05-19T01:28:03.685Z,7.41
2023-05-19T01:30:33.922Z,7.40
2023-05-19T01:33:04.434Z,7.38
2023-05-19T01:35:34.184Z,7.37
2023-05-19T01:38:01.773Z,7.36
2023-05-19T01:40:30.173Z,7.32
2023-05-19T01:42:59.338Z,7.30
2023-05-19T01:45:28.452Z,7.30
2023-05-19T01:48:00.395Z,7.27
2023-05-19T01:50:33.216Z,7.24
2023-05-19T01:53:01.317Z,7.21
2023-05-19T01:55:30.788Z,7.18
2023-05-19T01:58:12.516Z,7.17
2023-05-19T02:01:22.622Z,7.12
2023-05-19T02:03:58.162Z,7.11
2023-05-19T02:06:39.240Z,7.07
2023-05-19T02:09:29.018Z,7.04
2023-05-19T02:12:02.920Z,6.99
2023-05-19T02:14:41.912Z,6.98
2023-05-19T02:17:09.438Z,6.97
2023-05-19T02:19:39.375Z,6.95
2023-05-19T02:22:08.534Z,6.92
2023-05-19T02:24:35.103Z,6.89
2023-05-19T02:27:01.626Z,6.85
2023-05-19T02:29:30.494Z,6.84
2023-05-19T02:31:57.015Z,6.82
2023-05-19T02:34:28.468Z,6.80
2023-05-19T02:36:57.740Z,6.81
2023-05-19T02:39:26.712Z,6.77
2023-05-19T02:41:58.224Z,6.78
2023-05-19T02:44:24.793Z,6.77
2023-05-19T02:46:53.854Z,6.76
2023-05-19T02:49:20.610Z,6.76
2023-05-19T02:51:49.478Z,6.73
2023-05-19T02:54:20.744Z,6.72
2023-05-19T02:56:49.522Z,6.71
2023-05-19T02:59:18.386Z,6.69
2023-05-19T03:01:47.668Z,6.66
2023-05-19T03:04:20.125Z,6.68
2023-05-19T03:06:49.108Z,6.66
2023-05-19T03:09:15.704Z,6.66
2023-05-19T03:11:44.807Z,6.62
2023-05-19T03:14:12.457Z,6.58
2023-05-19T03:16:41.219Z,6.55
2023-05-19T03:19:09.153Z,6.50
2023-05-19T03:21:35.756Z,6.49
2023-05-19T03:24:02.392Z,6.47
2023-05-19T03:26:32.512Z,6.42
2023-05-19T03:29:03.935Z,6.40
2023-05-19T03:31:30.621Z,6.39
2023-05-19T03:34:02.492Z,6.39
2023-05-19T03:36:41.192Z,6.39
2023-05-19T03:39:12.626Z,6.39
2023-05-19T03:41:39.132Z,6.38
2023-05-19T03:44:11.184Z,6.40
2023-05-19T03:46:37.739Z,6.40
2023-05-19T03:49:04.250Z,6.41
2023-05-19T03:51:36.685Z,6.45
2023-05-19T03:54:08.316Z,6.45
2023-05-19T03:56:39.708Z,6.47
2023-05-19T03:59:07.111Z,6.49
2023-05-19T04:01:36.569Z,6.45
2023-05-19T04:04:03.367Z,6.43
2023-05-19T04:06:33.908Z,6.49
2023-05-19T04:09:05.075Z,6.52
2023-05-19T04:11:37.288Z,6.59
2023-05-19T04:14:06.267Z,6.65
2023-05-19T04:16:37.882Z,6.66
2023-05-19T04:19:06.748Z,6.71
2023-05-19T04:21:33.694Z,6.73
2023-05-19T04:24:00.266Z,6.80
2023-05-19T04:26:30.841Z,6.91
2023-05-19T04:28:59.924Z,6.94
2023-05-19T04:31:27.483Z,6.98
2023-05-19T04:33:56.620Z,7.03
2023-05-19T04:36:25.755Z,7.08
2023-05-19T04:38:54.995Z,7.21
2023-05-19T04:41:23.862Z,7.31
2023-05-19T04:43:53.061Z,7.35
2023-05-19T04:46:25.981Z,7.35
2023-05-19T04:48:55.329Z,7.41
2023-05-19T04:51:30.315Z,7.44
2023-05-19T04:53:57.709Z,7.51
2023-05-19T04:56:24.274Z,7.57
2023-05-19T04:58:53.779Z,7.70
2023-05-19T05:01:22.679Z,7.90
2023-05-19T05:03:49.329Z,8.57
2023-05-19T05:06:16.310Z,10.30
2023-05-19T05:08:42.862Z,11.69
2023-05-19T05:11:12.152Z,13.00
2023-05-19T05:13:41.951Z,13.64
2023-05-19T05:16:10.288Z,14.56
2023-05-19T05:18:38.738Z,15.01
2023-05-19T05:21:07.044Z,14.96
2023-05-19T05:23:34.053Z,14.59
2023-05-19T05:26:09.352Z,15.41
2023-05-19T05:28:35.944Z,15.06
2023-05-19T05:31:05.172Z,14.83
2023-05-19T05:33:34.288Z,14.79
2023-05-19T05:36:05.913Z,15.13
2023-05-19T05:38:32.528Z,15.46
2023-05-19T05:41:02.649Z,15.29
2023-05-19T05:43:30.020Z,14.69
2023-05-19T05:45:57.307Z,14.65
2023-05-19T05:48:26.755Z,14.32
2023-05-19T05:50:55.553Z,15.75
2023-05-19T05:53:24.637Z,17.27
2023-05-19T05:55:53.806Z,18.07
2023-05-19T05:58:23.051Z,19.32
2023-05-19T06:00:51.518Z,19.45
2023-05-19T06:03:22.040Z,18.09
2023-05-19T06:05:48.760Z,17.18
2023-05-19T06:08:20.173Z,17.29
2023-05-19T06:10:47.497Z,17.79
2023-05-19T06:13:22.253Z,18.04
2023-05-19T06:15:48.795Z,18.77
2023-05-19T06:18:15.428Z,19.48
2023-05-19T06:20:42.071Z,19.35
2023-05-19T06:23:08.556Z,19.45
2023-05-19T06:25:39.849Z,19.15
2023-05-19T06:28:08.639Z,20.03
2023-05-19T06:30:36.687Z,18.91
2023-05-19T06:33:08.234Z,18.49
2023-05-19T06:35:34.870Z,18.65
2023-05-19T06:38:01.562Z,19.87
2023-05-19T06:40:30.545Z,20.89
2023-05-19T06:43:02.087Z,20.09
2023-05-19T06:45:31.167Z,20.53
2023-05-19T06:47:58.421Z,20.52
2023-05-19T06:50:28.449Z,20.72
2023-05-19T06:52:58.330Z,21.71
2023-05-19T06:55:27.261Z,21.71
2023-05-19T06:57:53.833Z,20.60
2023-05-19T07:00:23.976Z,19.34
2023-05-19T07:02:53.955Z,19.37
2023-05-19T07:05:22.913Z,19.69
2023-05-19T07:07:49.448Z,19.43
2023-05-19T07:10:16.587Z,19.55
2023-05-19T07:12:43.618Z,19.54
2023-05-19T07:15:10.539Z,18.76
2023-05-19T07:17:44.326Z,18.33
2023-05-19T07:20:13.515Z,18.94
2023-05-19T07:22:40.273Z,19.68
2023-05-19T07:25:09.828Z,19.99
2023-05-19T07:27:38.695Z,19.45
2023-05-19T07:30:05.729Z,19.08
2023-05-19T07:32:32.337Z,18.03
2023-05-19T07:34:59.214Z,17.86
2023-05-19T07:37:26.400Z,17.86
2023-05-19T07:39:53.151Z,18.97
2023-05-19T07:42:19.728Z,19.94
2023-05-19T07:44:46.429Z,20.21
2023-05-19T07:47:17.475Z,20.83
2023-05-19T07:49:44.043Z,21.14
2023-05-19T07:52:15.323Z,20.59
2023-05-19T07:54:41.905Z,20.27
2023-05-19T07:57:08.486Z,19.93
2023-05-19T07:59:37.287Z,20.46
2023-05-19T08:02:03.927Z,20.80
2023-05-19T08:04:30.653Z,20.41
2023-05-19T08:06:59.746Z,21.13
2023-05-19T08:09:28.795Z,21.49
2023-05-19T08:12:01.564Z,20.73
2023-05-19T08:14:28.150Z,19.70
2023-05-19T08:16:54.649Z,19.01
2023-05-19T08:19:23.877Z,19.28
2023-05-19T08:21:55.223Z,19.44
2023-05-19T08:24:24.062Z,19.37
2023-05-19T08:26:52.689Z,19.88
2023-05-19T08:29:19.311Z,19.25
2023-05-19T08:31:46.097Z,19.69
2023-05-19T08:34:15.434Z,20.12
2023-05-19T08:36:45.273Z,19.91
2023-05-19T08:39:13.516Z,19.64
2023-05-19T08:41:42.290Z,19.39
2023-05-19T08:44:10.041Z,19.11
2023-05-19T08:46:43.621Z,18.96
2023-05-19T08:49:25.379Z,18.94
2023-05-19T08:52:17.160Z,19.19
2023-05-19T08:54:51.124Z,19.89
2023-05-19T08:57:23.010Z,19.08
2023-05-19T08:59:55.409Z,18.74
2023-05-19T09:02:25.289Z,18.76
2023-05-19T09:04:52.766Z,19.04
2023-05-19T09:07:25.486Z,19.07
2023-05-19T09:09:52.023Z,19.11
2023-05-19T09:12:21.587Z,19.00
2023-05-19T09:14:50.536Z,19.39
2023-05-19T09:17:19.424Z,19.21
2023-05-19T09:19:49.333Z,19.19
2023-05-19T09:22:21.336Z,19.26
2023-05-19T09:24:48.427Z,19.02
2023-05-19T09:27:23.851Z,18.77
2023-05-19T09:29:50.969Z,18.98
2023-05-19T09:32:27.833Z,19.09
2023-05-19T09:34:55.108Z,18.83
2023-05-19T09:37:27.685Z,19.26
2023-05-19T09:39:57.208Z,19.58
2023-05-19T09:42:30.224Z,19.31
2023-05-19T09:45:02.970Z,19.03
2023-05-19T09:47:38.603Z,18.81
2023-05-19T09:50:08.939Z,18.72
2023-05-19T09:52:37.197Z,19.51
2023-05-19T09:55:12.715Z,19.89
2023-05-19T09:57:43.199Z,19.93
2023-05-19T10:00:18.489Z,19.69
2023-05-19T10:02:47.923Z,19.33
2023-05-19T10:05:17.656Z,19.66
2023-05-19T10:07:45.692Z,19.28
2023-05-19T10:10:14.004Z,19.40
2023-05-19T10:12:41.966Z,19.62
2023-05-19T10:15:15.930Z,19.32
2023-05-19T10:17:46.213Z,19.30
2023-05-19T10:20:17.112Z,19.48
2023-05-19T10:22:46.429Z,19.76
2023-05-19T10:25:15.209Z,20.31
2023-05-19T10:28:05.510Z,20.19
2023-05-19T10:30:34.631Z,20.11
2023-05-19T10:33:03.595Z,20.22
2023-05-19T10:35:54.418Z,20.24
2023-05-19T10:38:58.583Z,19.96
2023-05-19T10:41:46.982Z,20.13
2023-05-19T10:44:35.037Z,20.19
2023-05-19T10:47:01.676Z,20.59
2023-05-19T10:49:35.561Z,20.27
2023-05-19T10:52:04.344Z,19.92
2023-05-19T10:54:46.584Z,20.00
2023-05-19T10:57:20.568Z,20.16
2023-05-19T10:59:57.745Z,19.79
2023-05-19T11:02:37.825Z,19.87
2023-05-19T11:05:16.571Z,20.26
2023-05-19T11:07:45.025Z,20.55
2023-05-19T11:10:11.913Z,20.82
2023-05-19T11:12:43.352Z,20.80
2023-05-19T11:15:14.934Z,20.94
2023-05-19T11:17:49.001Z,21.24
2023-05-19T11:20:27.130Z,21.37
2023-05-19T11:23:11.332Z,21.37
2023-05-19T11:25:45.767Z,20.88
2023-05-19T11:28:15.674Z,20.71
2023-05-19T11:30:46.441Z,21.07
2023-05-19T11:33:13.855Z,21.14
2023-05-19T11:35:40.607Z,21.38
2023-05-19T11:38:07.340Z,21.14
2023-05-19T11:40:36.647Z,20.59
2023-05-19T11:43:03.283Z,20.70
2023-05-19T11:45:33.304Z,20.23
2023-05-19T11:48:03.141Z,20.07
2023-05-19T11:50:35.294Z,19.73
2023-05-19T11:53:04.136Z,19.80
2023-05-19T11:55:31.089Z,19.83
2023-05-19T11:58:05.595Z,20.13
2023-05-19T12:00:43.010Z,20.17
2023-05-19T12:03:10.563Z,20.27
2023-05-19T12:05:47.415Z,19.99
2023-05-19T12:08:14.796Z,20.07
2023-05-19T12:10:41.415Z,19.95
2023-05-19T12:13:11.004Z,20.00
2023-05-19T12:15:40.073Z,20.20
2023-05-19T12:18:12.193Z,20.47
2023-05-19T12:20:39.226Z,20.45
2023-05-19T12:23:08.832Z,20.63
2023-05-19T12:25:35.624Z,20.86
2023-05-19T12:28:05.442Z,21.42
2023-05-19T12:30:33.637Z,21.19
2023-05-19T12:33:04.299Z,20.98
2023-05-19T12:35:33.850Z,21.40
2023-05-19T12:38:07.046Z,21.26
2023-05-19T12:40:40.622Z,21.62
2023-05-19T12:43:09.880Z,21.64
2023-05-19T12:45:39.653Z,21.61
2023-05-19T12:48:15.953Z,21.56
2023-05-19T12:50:46.758Z,21.40
2023-05-19T12:53:14.461Z,21.10
2023-05-19T12:55:47.306Z,21.06
2023-05-19T12:58:15.764Z,20.59
2023-05-19T13:00:43.825Z,20.91
2023-05-19T13:03:22.751Z,21.23
2023-05-19T13:05:50.855Z,21.37
2023-05-19T13:08:21.404Z,21.48
2023-05-19T13:10:56.078Z,21.42
2023-05-19T13:13:25.176Z,21.55
2023-05-19T13:15:51.710Z,21.50
2023-05-19T13:18:20.662Z,21.75
2023-05-19T13:20:49.284Z,21.21
2023-05-19T13:23:16.193Z,21.11
2023-05-19T13:25:45.826Z,21.27
2023-05-19T13:28:12.796Z,21.16
2023-05-19T13:30:41.040Z,21.47
2023-05-19T13:33:07.939Z,21.07
2023-05-19T13:35:37.582Z,20.81
2023-05-19T13:38:07.921Z,20.49
2023-05-19T13:40:35.114Z,20.51
2023-05-19T13:43:02.807Z,20.53
2023-05-19T13:45:29.434Z,20.62
2023-05-19T13:47:56.455Z,20.74
2023-05-19T13:50:28.069Z,20.47
2023-05-19T13:52:54.650Z,20.59
2023-05-19T13:55:21.526Z,21.09
2023-05-19T13:57:48.044Z,21.11
2023-05-19T14:00:15.109Z,20.91
2023-05-19T14:02:42.495Z,20.97
2023-05-19T14:05:09.199Z,20.90
2023-05-19T14:07:38.396Z,20.94
2023-05-19T14:10:07.807Z,21.01
2023-05-19T14:13:04.798Z,21.00
2023-05-19T14:15:34.548Z,21.24
2023-05-19T14:18:01.364Z,21.00
2023-05-19T14:20:29.249Z,21.08
2023-05-19T14:23:00.794Z,20.77
2023-05-19T14:25:32.171Z,20.65
2023-05-19T14:27:58.702Z,20.75
2023-05-19T14:30:25.284Z,21.05
2023-05-19T14:32:54.321Z,20.94
2023-05-19T14:35:24.077Z,20.87
2023-05-19T14:37:51.247Z,20.89
2023-05-19T14:40:17.818Z,20.78
2023-05-19T14:42:44.396Z,20.80
2023-05-19T14:45:11.475Z,20.62
2023-05-19T14:47:38.061Z,20.84
2023-05-19T14:50:05.019Z,20.92
2023-05-19T14:52:31.510Z,20.86
2023-05-19T14:55:02.943Z,20.45
2023-05-19T14:57:34.447Z,20.17
2023-05-19T15:00:01.013Z,20.13
2023-05-19T15:02:29.549Z,20.31
2023-05-19T15:04:58.940Z,20.31
2023-05-19T15:07:27.803Z,20.42
2023-05-19T15:09:56.683Z,20.40
2023-05-19T15:12:25.408Z,20.21
2023-05-19T15:14:56.501Z,20.41
2023-05-19T15:17:25.541Z,20.39
2023-05-19T15:19:56.690Z,20.44
2023-05-19T15:22:23.482Z,20.43
2023-05-19T15:24:52.536Z,20.22
2023-05-19T15:27:19.204Z,20.32
2023-05-19T15:29:45.725Z,20.34
2023-05-19T15:32:12.342Z,20.19
2023-05-19T15:34:41.386Z,20.11
2023-05-19T15:37:07.913Z,20.35
2023-05-19T15:39:39.362Z,20.40
2023-05-19T15:42:06.097Z,20.32
2023-05-19T15:44:36.554Z,20.09
2023-05-19T15:47:06.142Z,19.80
2023-05-19T15:49:32.696Z,19.75
2023-05-19T15:52:04.171Z,19.74
2023-05-19T15:54:33.026Z,19.65
2023-05-19T15:56:59.533Z,19.50
2023-05-19T15:59:26.095Z,19.39
2023-05-19T16:01:53.242Z,19.22
2023-05-19T16:04:22.353Z,19.36
2023-05-19T16:06:51.459Z,19.53
2023-05-19T16:09:22.812Z,19.63
2023-05-19T16:11:51.872Z,19.77
2023-05-19T16:14:18.460Z,19.82
2023-05-19T16:16:45.012Z,19.84
2023-05-19T16:19:14.120Z,19.85
2023-05-19T16:21:40.700Z,19.97
2023-05-19T16:24:12.149Z,19.99
2023-05-19T16:26:38.669Z,20.00
2023-05-19T16:29:05.276Z,19.85
2023-05-19T16:31:31.859Z,19.62
2023-05-19T16:33:58.523Z,19.49
2023-05-19T16:36:25.061Z,19.39
2023-05-19T16:38:51.614Z,19.49
2023-05-19T16:41:18.107Z,19.58
2023-05-19T16:43:44.628Z,19.61
2023-05-19T16:46:13.780Z,19.67
2023-05-19T16:48:43.519Z,19.71
2023-05-19T16:51:10.023Z,19.70
2023-05-19T16:53:36.676Z,19.61
2023-05-19T16:56:06.237Z,19.37
2023-05-19T16:58:32.773Z,19.24
2023-05-19T17:01:04.074Z,19.10
2023-05-19T17:03:31.928Z,18.95
2023-05-19T17:05:58.632Z,18.86
2023-05-19T17:08:27.547Z,18.78
2023-05-19T17:10:56.554Z,18.68
2023-05-19T17:13:23.450Z,18.74
2023-05-19T17:15:53.331Z,18.86
2023-05-19T17:18:19.838Z,19.00
2023-05-19T17:20:46.329Z,19.12
2023-05-19T17:23:12.862Z,19.21
2023-05-19T17:25:41.852Z,19.26
2023-05-19T17:28:10.752Z,19.21
2023-05-19T17:30:42.296Z,19.06
2023-05-19T17:33:11.532Z,18.87
2023-05-19T17:35:41.400Z,18.75
2023-05-19T17:38:07.966Z,18.76
2023-05-19T17:40:35.743Z,18.73
2023-05-19T17:43:05.976Z,18.79
2023-05-19T17:45:32.502Z,18.88
2023-05-19T17:48:01.490Z,18.98
2023-05-19T17:50:30.179Z,18.97
2023-05-19T17:52:57.012Z,18.90
2023-05-19T17:55:29.816Z,18.81
2023-05-19T17:57:59.457Z,18.65
2023-05-19T18:00:28.613Z,18.55
2023-05-19T18:02:59.052Z,18.50
2023-05-19T18:05:26.615Z,18.42
2023-05-19T18:07:56.426Z,18.31
2023-05-19T18:10:25.742Z,18.27
2023-05-19T18:12:52.232Z,18.16
2023-05-19T18:15:21.067Z,18.11
2023-05-19T18:17:48.213Z,18.06
2023-05-19T18:20:17.347Z,17.95
2023-05-19T18:22:46.942Z,17.85
2023-05-19T18:25:17.050Z,17.79
2023-05-19T18:27:43.848Z,17.71
2023-05-19T18:30:10.839Z,17.60
2023-05-19T18:32:39.894Z,17.51
2023-05-19T18:35:09.290Z,17.46
2023-05-19T18:37:38.533Z,17.33
2023-05-19T18:40:05.810Z,17.27
2023-05-19T18:42:32.283Z,17.23
2023-05-19T18:44:58.802Z,17.17
2023-05-19T18:47:25.347Z,17.11
2023-05-19T18:49:51.850Z,17.04
2023-05-19T18:52:19.815Z,16.92
2023-05-19T18:54:47.145Z,16.80
2023-05-19T18:57:16.270Z,16.74
2023-05-19T18:59:47.605Z,16.63
2023-05-19T19:02:14.086Z,16.56
2023-05-19T19:04:42.894Z,16.49
2023-05-19T19:07:12.252Z,16.41
2023-05-19T19:09:39.541Z,16.37
2023-05-19T19:12:08.283Z,16.32
2023-05-19T19:14:39.343Z,16.24
2023-05-19T19:17:13.419Z,16.18
2023-05-19T19:19:40.206Z,16.14
2023-05-19T19:22:09.047Z,16.04
2023-05-19T19:24:35.841Z,15.97
2023-05-19T19:27:02.438Z,15.90
2023-05-19T19:29:31.992Z,15.83
2023-05-19T19:32:00.898Z,15.75
2023-05-19T19:34:27.459Z,15.70
2023-05-19T19:36:54.044Z,15.61
2023-05-19T19:39:23.867Z,15.51
2023-05-19T19:41:50.432Z,15.43
2023-05-19T19:44:19.259Z,15.35
2023-05-19T19:46:45.852Z,15.26
2023-05-19T19:49:12.371Z,15.20
2023-05-19T19:51:38.866Z,15.14
2023-05-19T19:54:10.344Z,15.05
2023-05-19T19:56:39.069Z,15.02
2023-05-19T19:59:08.028Z,14.95
2023-05-19T20:01:36.982Z,14.90
2023-05-19T20:04:08.240Z,14.86
2023-05-19T20:06:38.367Z,14.78
2023-05-19T20:09:05.253Z,14.73
2023-05-19T20:11:31.881Z,14.69
2023-05-19T20:14:03.168Z,14.64
2023-05-19T20:16:29.757Z,14.59
2023-05-19T20:18:56.475Z,14.54
2023-05-19T20:21:22.992Z,14.49
2023-05-19T20:23:51.714Z,14.43
2023-05-19T20:26:18.311Z,14.34
2023-05-19T20:28:46.406Z,14.27
2023-05-19T20:31:15.460Z,14.22
2023-05-19T20:33:42.055Z,14.13
2023-05-19T20:36:08.579Z,14.03
2023-05-19T20:38:35.072Z,14.03
2023-05-19T20:41:01.993Z,14.04
2023-05-19T20:43:31.826Z,14.02
2023-05-19T20:45:58.782Z,13.96
2023-05-19T20:48:25.773Z,13.92
2023-05-19T20:50:53.533Z,13.88
2023-05-19T20:53:21.480Z,13.86
2023-05-19T20:55:52.853Z,13.84
2023-05-19T20:58:19.343Z,13.79
2023-05-19T21:00:45.900Z,13.74
2023-05-19T21:03:14.927Z,13.72
2023-05-19T21:05:44.064Z,13.66
2023-05-19T21:08:13.651Z,13.59
2023-05-19T21:10:42.705Z,13.56
2023-05-19T21:13:12.150Z,13.53
2023-05-19T21:15:38.673Z,13.52
2023-05-19T21:18:08.419Z,13.45
2023-05-19T21:20:39.871Z,13.42
2023-05-19T21:23:06.380Z,13.39
2023-05-19T21:25:35.703Z,13.36
2023-05-19T21:28:02.212Z,13.33
2023-05-19T21:30:28.762Z,13.29
2023-05-19T21:32:57.974Z,13.25
2023-05-19T21:35:27.235Z,13.21
2023-05-19T21:37:56.538Z,13.17
2023-05-19T21:40:27.687Z,13.19
2023-05-19T21:42:54.232Z,13.21
2023-05-19T21:45:20.810Z,13.20
2023-05-19T21:47:47.401Z,13.22
2023-05-19T21:50:17.294Z,13.18
2023-05-19T21:52:46.045Z,13.19
2023-05-19T21:55:14.903Z,13.18
2023-05-19T21:57:43.683Z,13.11
2023-05-19T22:00:13.412Z,13.06
2023-05-19T22:02:40.533Z,13.03
2023-05-19T22:05:09.575Z,13.02
2023-05-19T22:07:38.221Z,12.97
2023-05-19T22:10:05.271Z,12.98
2023-05-19T22:12:32.642Z,13.00
2023-05-19T22:15:02.823Z,12.97
2023-05-19T22:17:31.909Z,12.95
2023-05-19T22:19:58.436Z,12.94
2023-05-19T22:22:27.291Z,12.86
2023-05-19T22:24:53.828Z,12.77
2023-05-19T22:27:22.708Z,12.77
2023-05-19T22:29:49.235Z,12.82
2023-05-19T22:32:19.531Z,12.83
2023-05-19T22:34:46.651Z,12.83
2023-05-19T22:37:13.319Z,12.81
2023-05-19T22:39:42.063Z,12.79
2023-05-19T22:42:11.074Z,12.76
2023-05-19T22:44:42.210Z,12.67
2023-05-19T22:47:13.955Z,12.59
2023-05-19T22:49:41.411Z,12.52
2023-05-19T22:52:11.369Z,12.46
2023-05-19T22:54:38.234Z,12.43
2023-05-19T22:57:05.164Z,12.41
2023-05-19T22:59:35.377Z,12.34
2023-05-19T23:02:02.041Z,12.27
2023-05-19T23:04:32.125Z,12.21
2023-05-19T23:07:01.205Z,12.13
2023-05-19T23:09:30.576Z,12.06
2023-05-19T23:11:57.113Z,12.03
2023-05-19T23:14:25.813Z,11.99
2023-05-19T23:16:52.422Z,11.96
2023-05-19T23:19:20.520Z,11.92
2023-05-19T23:21:48.981Z,11.86
2023-05-19T23:24:17.929Z,11.77
2023-05-19T23:26:46.687Z,11.78
2023-05-19T23:29:14.753Z,11.74
2023-05-19T23:31:41.649Z,11.66
2023-05-19T23:34:11.253Z,11.63
2023-05-19T23:36:37.856Z,11.63
2023-05-19T23:39:04.348Z,11.62
2023-05-19T23:41:33.215Z,11.59
2023-05-19T23:44:02.014Z,11.55
2023-05-19T23:46:31.407Z,11.53
2023-05-19T23:48:59.303Z,11.49
2023-05-19T23:51:28.081Z,11.46
2023-05-19T23:53:54.616Z,11.40
2023-05-19T23:56:21.726Z,11.34
2023-05-19T23:58:48.221Z,11.33
